New Point, Indiana
Current Conditions -  °F | °C
As of 4:35 PM on Sunday 23 Nov 2014 (Local Time) from KI67 Reporting Station
Overcast Overcast  
Wind Chill: 54°   Ceiling: 6000
Heat Index: 54°   Visibility: 10mi
Dew Point: 50°   Wind: 7mph
Humidity: 88%   Direction: 130°SE
Pressure: 29.57"   Gusts: 18mph
Location:  39.31°N, 85.33°W
Report Text: KI67 232135Z AUTO 13006G16KT 10SM SCT023 SCT031 OVC060 12/10 A2957 RMK AO1 P0001
Loading
Personal Weather Stations






























Interactive Weather Map New forecast layout! Learn more

10-Day Weather Forecast

Advertisements
Track Severe Weather on mobile